sensor_id;sensor_type;location;lat;lon;timestamp;P1;durP1;ratioP1;P2;durP2;ratioP2
52848;SDS011;38714;53.180;5.812;2023-02-08T00:02:12;13.43;;;12.03;;
52848;SDS011;38714;53.180;5.812;2023-02-08T00:04:37;27.77;;;14.47;;
52848;SDS011;38714;53.180;5.812;2023-02-08T00:07:03;18.33;;;13.50;;
52848;SDS011;38714;53.180;5.812;2023-02-08T00:09:28;20.80;;;14.23;;
52848;SDS011;38714;53.180;5.812;2023-02-08T00:11:54;22.57;;;12.17;;
52848;SDS011;38714;53.180;5.812;2023-02-08T00:14:20;26.13;;;14.43;;
52848;SDS011;38714;53.180;5.812;2023-02-08T00:16:45;30.17;;;11.63;;
52848;SDS011;38714;53.180;5.812;2023-02-08T00:19:11;19.97;;;14.20;;
52848;SDS011;38714;53.180;5.812;2023-02-08T00:21:36;23.63;;;13.17;;
52848;SDS011;38714;53.180;5.812;2023-02-08T00:24:02;24.97;;;12.17;;
52848;SDS011;38714;53.180;5.812;2023-02-08T00:26:28;24.53;;;13.17;;
52848;SDS011;38714;53.180;5.812;2023-02-08T00:28:54;19.83;;;11.10;;
52848;SDS011;38714;53.180;5.812;2023-02-08T00:31:19;16.83;;;12.87;;
52848;SDS011;38714;53.180;5.812;2023-02-08T00:33:45;25.23;;;13.97;;
52848;SDS011;38714;53.180;5.812;2023-02-08T00:36:10;22.13;;;12.20;;
52848;SDS011;38714;53.180;5.812;2023-02-08T00:38:36;19.13;;;13.30;;
52848;SDS011;38714;53.180;5.812;2023-02-08T00:41:02;18.53;;;12.77;;
52848;SDS011;38714;53.180;5.812;2023-02-08T00:43:28;15.00;;;9.37;;
52848;SDS011;38714;53.180;5.812;2023-02-08T00:45:54;17.53;;;13.37;;
52848;SDS011;38714;53.180;5.812;2023-02-08T00:48:21;17.20;;;13.10;;
52848;SDS011;38714;53.180;5.812;2023-02-08T00:53:28;16.17;;;10.63;;
52848;SDS011;38714;53.180;5.812;2023-02-08T00:55:54;19.97;;;11.53;;
52848;SDS011;38714;53.180;5.812;2023-02-08T00:58:20;18.37;;;12.47;;
52848;SDS011;38714;53.180;5.812;2023-02-08T01:00:46;16.63;;;11.93;;
52848;SDS011;38714;53.180;5.812;2023-02-08T01:03:14;18.00;;;13.37;;
52848;SDS011;38714;53.180;5.812;2023-02-08T01:05:39;16.53;;;10.57;;
52848;SDS011;38714;53.180;5.812;2023-02-08T01:08:05;17.37;;;12.87;;
52848;SDS011;38714;53.180;5.812;2023-02-08T01:10:31;16.47;;;12.70;;
52848;SDS011;38714;53.180;5.812;2023-02-08T01:12:57;26.87;;;13.77;;
52848;SDS011;38714;53.180;5.812;2023-02-08T01:15:23;19.83;;;14.17;;
52848;SDS011;38714;53.180;5.812;2023-02-08T01:17:52;20.03;;;10.67;;
52848;SDS011;38714;53.180;5.812;2023-02-08T01:20:19;20.87;;;14.63;;
52848;SDS011;38714;53.180;5.812;2023-02-08T01:22:45;20.70;;;11.57;;
52848;SDS011;38714;53.180;5.812;2023-02-08T01:25:11;18.20;;;10.63;;
52848;SDS011;38714;53.180;5.812;2023-02-08T01:27:36;15.93;;;12.10;;
52848;SDS011;38714;53.180;5.812;2023-02-08T01:30:02;19.23;;;12.33;;
52848;SDS011;38714;53.180;5.812;2023-02-08T01:32:28;25.87;;;12.83;;
52848;SDS011;38714;53.180;5.812;2023-02-08T01:34:54;18.50;;;13.47;;
52848;SDS011;38714;53.180;5.812;2023-02-08T01:37:20;18.23;;;11.97;;
52848;SDS011;38714;53.180;5.812;2023-02-08T01:39:45;17.67;;;12.00;;
52848;SDS011;38714;53.180;5.812;2023-02-08T01:42:12;26.10;;;13.47;;
52848;SDS011;38714;53.180;5.812;2023-02-08T01:47:48;16.63;;;12.50;;
52848;SDS011;38714;53.180;5.812;2023-02-08T01:50:17;19.00;;;10.60;;
52848;SDS011;38714;53.180;5.812;2023-02-08T01:52:46;15.57;;;10.63;;
52848;SDS011;38714;53.180;5.812;2023-02-08T01:55:46;15.83;;;12.90;;
52848;SDS011;38714;53.180;5.812;2023-02-08T01:58:08;15.63;;;9.37;;
52848;SDS011;38714;53.180;5.812;2023-02-08T02:00:36;13.90;;;10.67;;
52848;SDS011;38714;53.180;5.812;2023-02-08T02:03:01;17.30;;;12.23;;
52848;SDS011;38714;53.180;5.812;2023-02-08T02:05:31;16.47;;;11.63;;
52848;SDS011;38714;53.180;5.812;2023-02-08T02:08:02;22.50;;;11.97;;
52848;SDS011;38714;53.180;5.812;2023-02-08T02:10:30;20.77;;;10.57;;
52848;SDS011;38714;53.180;5.812;2023-02-08T02:12:58;20.27;;;13.13;;
52848;SDS011;38714;53.180;5.812;2023-02-08T02:15:31;12.43;;;10.70;;
52848;SDS011;38714;53.180;5.812;2023-02-08T02:17:57;22.43;;;12.27;;
52848;SDS011;38714;53.180;5.812;2023-02-08T02:34:08;20.93;;;12.50;;
52848;SDS011;38714;53.180;5.812;2023-02-08T02:37:10;17.87;;;11.87;;
52848;SDS011;38714;53.180;5.812;2023-02-08T02:39:47;14.53;;;10.93;;
52848;SDS011;38714;53.180;5.812;2023-02-08T02:42:36;16.47;;;10.53;;
52848;SDS011;38714;53.180;5.812;2023-02-08T02:48:29;22.43;;;12.77;;
52848;SDS011;38714;53.180;5.812;2023-02-08T02:51:24;17.45;;;9.75;;
52848;SDS011;38714;53.180;5.812;2023-02-08T02:56:44;20.20;;;10.87;;
52848;SDS011;38714;53.180;5.812;2023-02-08T02:59:16;18.05;;;12.05;;
52848;SDS011;38714;53.180;5.812;2023-02-08T03:01:42;17.10;;;8.83;;
52848;SDS011;38714;53.180;5.812;2023-02-08T03:04:55;15.50;;;9.93;;
52848;SDS011;38714;53.180;5.812;2023-02-08T03:21:02;11.73;;;10.37;;
52848;SDS011;38714;53.180;5.812;2023-02-08T03:26:37;21.63;;;10.90;;
52848;SDS011;38714;53.180;5.812;2023-02-08T03:29:11;20.30;;;11.50;;
52848;SDS011;38714;53.180;5.812;2023-02-08T03:31:42;13.37;;;10.23;;
52848;SDS011;38714;53.180;5.812;2023-02-08T03:37:11;12.27;;;9.10;;
52848;SDS011;38714;53.180;5.812;2023-02-08T03:40:00;19.77;;;10.60;;
52848;SDS011;38714;53.180;5.812;2023-02-08T03:42:30;9.95;;;8.65;;
52848;SDS011;38714;53.180;5.812;2023-02-08T03:44:58;18.57;;;9.00;;
52848;SDS011;38714;53.180;5.812;2023-02-08T03:47:31;15.83;;;8.97;;
52848;SDS011;38714;53.180;5.812;2023-02-08T03:50:02;17.17;;;9.10;;
52848;SDS011;38714;53.180;5.812;2023-02-08T03:52:31;28.67;;;12.40;;
52848;SDS011;38714;53.180;5.812;2023-02-08T03:55:00;18.90;;;12.07;;
52848;SDS011;38714;53.180;5.812;2023-02-08T03:57:32;14.70;;;10.70;;
52848;SDS011;38714;53.180;5.812;2023-02-08T04:02:32;17.17;;;10.10;;
52848;SDS011;38714;53.180;5.812;2023-02-08T04:05:01;17.50;;;9.43;;
52848;SDS011;38714;53.180;5.812;2023-02-08T04:07:29;12.67;;;8.73;;
52848;SDS011;38714;53.180;5.812;2023-02-08T04:09:55;10.73;;;8.37;;
52848;SDS011;38714;53.180;5.812;2023-02-08T04:12:21;27.60;;;12.43;;
52848;SDS011;38714;53.180;5.812;2023-02-08T04:14:47;13.37;;;9.10;;
52848;SDS011;38714;53.180;5.812;2023-02-08T04:17:12;12.17;;;9.10;;
52848;SDS011;38714;53.180;5.812;2023-02-08T04:19:38;11.53;;;9.87;;
52848;SDS011;38714;53.180;5.812;2023-02-08T04:22:04;14.93;;;9.70;;
52848;SDS011;38714;53.180;5.812;2023-02-08T04:24:29;16.93;;;10.40;;
52848;SDS011;38714;53.180;5.812;2023-02-08T04:26:55;13.67;;;8.47;;
52848;SDS011;38714;53.180;5.812;2023-02-08T04:29:20;19.77;;;9.47;;
52848;SDS011;38714;53.180;5.812;2023-02-08T04:31:46;15.27;;;9.93;;
52848;SDS011;38714;53.180;5.812;2023-02-08T04:34:12;21.77;;;11.10;;
52848;SDS011;38714;53.180;5.812;2023-02-08T04:36:37;17.20;;;10.40;;
52848;SDS011;38714;53.180;5.812;2023-02-08T04:39:03;18.23;;;11.30;;
52848;SDS011;38714;53.180;5.812;2023-02-08T04:41:28;12.03;;;9.13;;
52848;SDS011;38714;53.180;5.812;2023-02-08T04:43:54;23.73;;;12.23;;
52848;SDS011;38714;53.180;5.812;2023-02-08T04:46:20;17.37;;;10.43;;
52848;SDS011;38714;53.180;5.812;2023-02-08T04:48:45;19.20;;;11.97;;
52848;SDS011;38714;53.180;5.812;2023-02-08T04:51:11;29.60;;;13.37;;
52848;SDS011;38714;53.180;5.812;2023-02-08T04:53:36;13.47;;;10.60;;
52848;SDS011;38714;53.180;5.812;2023-02-08T04:56:02;13.37;;;9.07;;
52848;SDS011;38714;53.180;5.812;2023-02-08T04:58:28;16.80;;;9.43;;
52848;SDS011;38714;53.180;5.812;2023-02-08T05:00:53;24.63;;;12.03;;
52848;SDS011;38714;53.180;5.812;2023-02-08T05:03:19;19.80;;;11.17;;
52848;SDS011;38714;53.180;5.812;2023-02-08T05:05:44;17.80;;;11.00;;
52848;SDS011;38714;53.180;5.812;2023-02-08T05:08:10;18.60;;;9.93;;
52848;SDS011;38714;53.180;5.812;2023-02-08T05:10:35;19.27;;;11.63;;
52848;SDS011;38714;53.180;5.812;2023-02-08T05:13:01;16.40;;;9.83;;
52848;SDS011;38714;53.180;5.812;2023-02-08T05:15:27;17.03;;;10.30;;
52848;SDS011;38714;53.180;5.812;2023-02-08T05:17:52;15.67;;;9.77;;
52848;SDS011;38714;53.180;5.812;2023-02-08T05:20:18;17.70;;;11.30;;
52848;SDS011;38714;53.180;5.812;2023-02-08T05:22:45;19.87;;;10.80;;
52848;SDS011;38714;53.180;5.812;2023-02-08T05:25:11;16.80;;;8.40;;
52848;SDS011;38714;53.180;5.812;2023-02-08T05:27:36;14.43;;;9.47;;
52848;SDS011;38714;53.180;5.812;2023-02-08T05:30:02;11.73;;;9.33;;
52848;SDS011;38714;53.180;5.812;2023-02-08T05:32:28;12.93;;;9.90;;
52848;SDS011;38714;53.180;5.812;2023-02-08T05:34:54;15.60;;;9.53;;
52848;SDS011;38714;53.180;5.812;2023-02-08T05:37:19;23.87;;;9.57;;
52848;SDS011;38714;53.180;5.812;2023-02-08T05:39:45;15.77;;;9.67;;
52848;SDS011;38714;53.180;5.812;2023-02-08T05:42:11;12.17;;;10.67;;
52848;SDS011;38714;53.180;5.812;2023-02-08T05:44:37;15.27;;;9.00;;
52848;SDS011;38714;53.180;5.812;2023-02-08T05:47:02;19.53;;;11.03;;
52848;SDS011;38714;53.180;5.812;2023-02-08T05:49:28;11.83;;;9.73;;
52848;SDS011;38714;53.180;5.812;2023-02-08T05:51:54;13.30;;;10.43;;
52848;SDS011;38714;53.180;5.812;2023-02-08T05:54:19;17.63;;;10.40;;
52848;SDS011;38714;53.180;5.812;2023-02-08T05:56:45;11.53;;;9.53;;
52848;SDS011;38714;53.180;5.812;2023-02-08T05:59:11;15.43;;;10.30;;
52848;SDS011;38714;53.180;5.812;2023-02-08T06:01:36;16.27;;;10.23;;
52848;SDS011;38714;53.180;5.812;2023-02-08T06:04:02;18.20;;;10.13;;
52848;SDS011;38714;53.180;5.812;2023-02-08T06:06:27;18.10;;;13.27;;
52848;SDS011;38714;53.180;5.812;2023-02-08T06:08:53;21.97;;;11.47;;
52848;SDS011;38714;53.180;5.812;2023-02-08T06:11:19;12.90;;;8.60;;
52848;SDS011;38714;53.180;5.812;2023-02-08T06:13:45;18.23;;;10.93;;
52848;SDS011;38714;53.180;5.812;2023-02-08T06:16:12;21.43;;;10.47;;
52848;SDS011;38714;53.180;5.812;2023-02-08T06:18:38;20.57;;;11.50;;
52848;SDS011;38714;53.180;5.812;2023-02-08T06:21:03;15.30;;;10.37;;
52848;SDS011;38714;53.180;5.812;2023-02-08T06:23:29;11.50;;;10.00;;
52848;SDS011;38714;53.180;5.812;2023-02-08T06:25:55;17.40;;;10.20;;
52848;SDS011;38714;53.180;5.812;2023-02-08T06:28:21;18.67;;;11.63;;
52848;SDS011;38714;53.180;5.812;2023-02-08T06:30:50;15.73;;;11.10;;
52848;SDS011;38714;53.180;5.812;2023-02-08T06:33:16;16.10;;;11.83;;
52848;SDS011;38714;53.180;5.812;2023-02-08T06:36:00;20.07;;;10.00;;
52848;SDS011;38714;53.180;5.812;2023-02-08T06:38:26;18.53;;;9.27;;
52848;SDS011;38714;53.180;5.812;2023-02-08T06:40:51;19.13;;;11.67;;
52848;SDS011;38714;53.180;5.812;2023-02-08T06:43:17;15.87;;;9.93;;
52848;SDS011;38714;53.180;5.812;2023-02-08T06:45:43;16.93;;;9.23;;
52848;SDS011;38714;53.180;5.812;2023-02-08T06:48:10;17.03;;;10.67;;
52848;SDS011;38714;53.180;5.812;2023-02-08T06:50:36;16.10;;;9.73;;
52848;SDS011;38714;53.180;5.812;2023-02-08T06:53:02;15.97;;;10.87;;
52848;SDS011;38714;53.180;5.812;2023-02-08T06:55:28;13.33;;;11.83;;
52848;SDS011;38714;53.180;5.812;2023-02-08T06:57:54;16.80;;;9.57;;
52848;SDS011;38714;53.180;5.812;2023-02-08T07:00:20;19.97;;;11.10;;
52848;SDS011;38714;53.180;5.812;2023-02-08T07:02:45;16.13;;;9.10;;
52848;SDS011;38714;53.180;5.812;2023-02-08T07:05:11;19.27;;;13.17;;
52848;SDS011;38714;53.180;5.812;2023-02-08T07:07:38;16.50;;;11.17;;
52848;SDS011;38714;53.180;5.812;2023-02-08T07:10:04;16.60;;;11.07;;
52848;SDS011;38714;53.180;5.812;2023-02-08T07:12:33;16.23;;;10.13;;
52848;SDS011;38714;53.180;5.812;2023-02-08T07:15:00;13.73;;;10.57;;
52848;SDS011;38714;53.180;5.812;2023-02-08T07:17:26;21.27;;;12.97;;
52848;SDS011;38714;53.180;5.812;2023-02-08T07:19:52;21.83;;;12.07;;
52848;SDS011;38714;53.180;5.812;2023-02-08T07:22:18;14.73;;;8.53;;
52848;SDS011;38714;53.180;5.812;2023-02-08T07:24:43;23.37;;;12.87;;
52848;SDS011;38714;53.180;5.812;2023-02-08T07:27:09;17.73;;;11.50;;
52848;SDS011;38714;53.180;5.812;2023-02-08T07:29:36;19.90;;;11.80;;
52848;SDS011;38714;53.180;5.812;2023-02-08T07:32:03;15.97;;;10.50;;
52848;SDS011;38714;53.180;5.812;2023-02-08T07:34:31;20.60;;;10.57;;
52848;SDS011;38714;53.180;5.812;2023-02-08T07:36:58;17.33;;;12.07;;
52848;SDS011;38714;53.180;5.812;2023-02-08T07:39:25;17.13;;;11.63;;
52848;SDS011;38714;53.180;5.812;2023-02-08T07:41:50;19.17;;;12.70;;
52848;SDS011;38714;53.180;5.812;2023-02-08T07:44:16;14.77;;;12.30;;
52848;SDS011;38714;53.180;5.812;2023-02-08T07:46:41;16.83;;;10.83;;
52848;SDS011;38714;53.180;5.812;2023-02-08T07:49:07;16.90;;;11.37;;
52848;SDS011;38714;53.180;5.812;2023-02-08T07:51:33;16.53;;;12.70;;
52848;SDS011;38714;53.180;5.812;2023-02-08T07:53:59;24.33;;;16.13;;
52848;SDS011;38714;53.180;5.812;2023-02-08T07:56:24;20.17;;;12.53;;
52848;SDS011;38714;53.180;5.812;2023-02-08T07:58:50;21.37;;;12.17;;
52848;SDS011;38714;53.180;5.812;2023-02-08T08:01:15;28.83;;;15.97;;
52848;SDS011;38714;53.180;5.812;2023-02-08T08:03:41;25.37;;;14.43;;
52848;SDS011;38714;53.180;5.812;2023-02-08T08:06:07;17.03;;;13.37;;
52848;SDS011;38714;53.180;5.812;2023-02-08T08:08:32;20.27;;;13.80;;
52848;SDS011;38714;53.180;5.812;2023-02-08T08:10:58;24.20;;;13.43;;
52848;SDS011;38714;53.180;5.812;2023-02-08T08:13:23;17.40;;;10.67;;
52848;SDS011;38714;53.180;5.812;2023-02-08T08:15:49;23.60;;;14.67;;
52848;SDS011;38714;53.180;5.812;2023-02-08T08:18:14;25.77;;;14.60;;
52848;SDS011;38714;53.180;5.812;2023-02-08T08:20:40;31.13;;;17.40;;
52848;SDS011;38714;53.180;5.812;2023-02-08T08:23:06;21.00;;;13.93;;
52848;SDS011;38714;53.180;5.812;2023-02-08T08:25:32;20.57;;;11.87;;
52848;SDS011;38714;53.180;5.812;2023-02-08T08:27:59;23.77;;;12.50;;
52848;SDS011;38714;53.180;5.812;2023-02-08T08:30:25;20.27;;;13.97;;
52848;SDS011;38714;53.180;5.812;2023-02-08T08:32:51;19.37;;;15.57;;
52848;SDS011;38714;53.180;5.812;2023-02-08T08:35:17;18.07;;;11.97;;
52848;SDS011;38714;53.180;5.812;2023-02-08T08:37:42;18.60;;;11.43;;
52848;SDS011;38714;53.180;5.812;2023-02-08T08:40:08;23.43;;;12.73;;
52848;SDS011;38714;53.180;5.812;2023-02-08T08:42:34;17.47;;;13.40;;
52848;SDS011;38714;53.180;5.812;2023-02-08T08:45:01;21.90;;;13.90;;
52848;SDS011;38714;53.180;5.812;2023-02-08T08:47:27;21.23;;;12.63;;
52848;SDS011;38714;53.180;5.812;2023-02-08T08:49:52;20.47;;;12.90;;
52848;SDS011;38714;53.180;5.812;2023-02-08T08:52:18;17.47;;;12.53;;
52848;SDS011;38714;53.180;5.812;2023-02-08T08:54:44;17.47;;;13.47;;
52848;SDS011;38714;53.180;5.812;2023-02-08T08:57:09;19.73;;;12.97;;
52848;SDS011;38714;53.180;5.812;2023-02-08T08:59:35;19.07;;;12.97;;
52848;SDS011;38714;53.180;5.812;2023-02-08T09:02:00;23.03;;;12.93;;
52848;SDS011;38714;53.180;5.812;2023-02-08T09:04:26;39.87;;;15.47;;
52848;SDS011;38714;53.180;5.812;2023-02-08T09:06:52;20.97;;;12.73;;
52848;SDS011;38714;53.180;5.812;2023-02-08T09:09:19;21.57;;;13.53;;
52848;SDS011;38714;53.180;5.812;2023-02-08T09:11:46;22.43;;;16.37;;
52848;SDS011;38714;53.180;5.812;2023-02-08T09:14:12;23.63;;;15.30;;
52848;SDS011;38714;53.180;5.812;2023-02-08T09:16:41;18.47;;;12.03;;
52848;SDS011;38714;53.180;5.812;2023-02-08T09:19:12;21.87;;;13.40;;
52848;SDS011;38714;53.180;5.812;2023-02-08T09:21:38;21.67;;;12.90;;
52848;SDS011;38714;53.180;5.812;2023-02-08T09:24:04;24.17;;;14.50;;
52848;SDS011;38714;53.180;5.812;2023-02-08T09:26:30;17.97;;;12.23;;
52848;SDS011;38714;53.180;5.812;2023-02-08T09:28:56;21.73;;;15.77;;
52848;SDS011;38714;53.180;5.812;2023-02-08T09:31:26;19.33;;;12.20;;
52848;SDS011;38714;53.180;5.812;2023-02-08T09:33:54;15.68;;;11.27;;
52848;SDS011;38714;53.180;5.812;2023-02-08T09:36:21;21.57;;;12.20;;
52848;SDS011;38714;53.180;5.812;2023-02-08T09:38:49;16.70;;;12.37;;
52848;SDS011;38714;53.180;5.812;2023-02-08T09:44:18;20.17;;;11.30;;
52848;SDS011;38714;53.180;5.812;2023-02-08T09:49:31;20.10;;;12.00;;
52848;SDS011;38714;53.180;5.812;2023-02-08T09:52:03;17.27;;;11.40;;
52848;SDS011;38714;53.180;5.812;2023-02-08T09:54:42;14.80;;;12.50;;
52848;SDS011;38714;53.180;5.812;2023-02-08T09:57:13;13.13;;;11.80;;
52848;SDS011;38714;53.180;5.812;2023-02-08T09:59:54;17.17;;;11.70;;
52848;SDS011;38714;53.180;5.812;2023-02-08T10:02:25;18.37;;;12.27;;
52848;SDS011;38714;53.180;5.812;2023-02-08T10:05:13;16.30;;;11.60;;
52848;SDS011;38714;53.180;5.812;2023-02-08T10:07:42;21.13;;;11.37;;
52848;SDS011;38714;53.180;5.812;2023-02-08T10:10:18;16.07;;;10.50;;
52848;SDS011;38714;53.180;5.812;2023-02-08T10:13:10;14.33;;;12.13;;
52848;SDS011;38714;53.180;5.812;2023-02-08T10:15:50;16.07;;;11.53;;
52848;SDS011;38714;53.180;5.812;2023-02-08T10:18:40;16.47;;;12.00;;
52848;SDS011;38714;53.180;5.812;2023-02-08T10:21:13;19.37;;;11.83;;
52848;SDS011;38714;53.180;5.812;2023-02-08T10:26:33;24.27;;;14.23;;
52848;SDS011;38714;53.180;5.812;2023-02-08T10:34:45;18.37;;;10.27;;
52848;SDS011;38714;53.180;5.812;2023-02-08T10:39:45;12.50;;;8.70;;
52848;SDS011;38714;53.180;5.812;2023-02-08T10:42:17;17.03;;;10.23;;
52848;SDS011;38714;53.180;5.812;2023-02-08T10:50:24;15.83;;;10.30;;
52848;SDS011;38714;53.180;5.812;2023-02-08T10:52:52;16.10;;;10.33;;
52848;SDS011;38714;53.180;5.812;2023-02-08T10:55:19;14.60;;;8.60;;
52848;SDS011;38714;53.180;5.812;2023-02-08T10:57:46;15.77;;;10.10;;
52848;SDS011;38714;53.180;5.812;2023-02-08T11:00:24;17.50;;;10.03;;
52848;SDS011;38714;53.180;5.812;2023-02-08T11:02:55;15.97;;;10.43;;
52848;SDS011;38714;53.180;5.812;2023-02-08T11:08:23;12.57;;;9.50;;
52848;SDS011;38714;53.180;5.812;2023-02-08T11:10:59;13.73;;;8.60;;
52848;SDS011;38714;53.180;5.812;2023-02-08T11:13:46;16.33;;;10.13;;
52848;SDS011;38714;53.180;5.812;2023-02-08T11:16:22;18.53;;;10.43;;
52848;SDS011;38714;53.180;5.812;2023-02-08T11:18:58;15.83;;;10.43;;
52848;SDS011;38714;53.180;5.812;2023-02-08T11:21:36;15.60;;;10.20;;
52848;SDS011;38714;53.180;5.812;2023-02-08T11:26:33;14.43;;;10.20;;
52848;SDS011;38714;53.180;5.812;2023-02-08T11:31:36;18.70;;;10.73;;
52848;SDS011;38714;53.180;5.812;2023-02-08T11:34:05;14.90;;;9.37;;
52848;SDS011;38714;53.180;5.812;2023-02-08T11:36:35;29.47;;;10.00;;
52848;SDS011;38714;53.180;5.812;2023-02-08T11:39:17;27.08;;;8.77;;
52848;SDS011;38714;53.180;5.812;2023-02-08T11:42:06;17.37;;;9.70;;
52848;SDS011;38714;53.180;5.812;2023-02-08T11:44:45;13.03;;;7.43;;
52848;SDS011;38714;53.180;5.812;2023-02-08T11:47:14;10.37;;;6.90;;
52848;SDS011;38714;53.180;5.812;2023-02-08T11:49:42;13.83;;;9.47;;
52848;SDS011;38714;53.180;5.812;2023-02-08T11:52:23;16.73;;;9.33;;
52848;SDS011;38714;53.180;5.812;2023-02-08T11:54:54;17.63;;;11.37;;
52848;SDS011;38714;53.180;5.812;2023-02-08T11:58:16;19.23;;;9.23;;
52848;SDS011;38714;53.180;5.812;2023-02-08T12:01:03;15.83;;;10.20;;
52848;SDS011;38714;53.180;5.812;2023-02-08T12:03:31;15.63;;;11.20;;
52848;SDS011;38714;53.180;5.812;2023-02-08T12:08:42;16.73;;;11.37;;
52848;SDS011;38714;53.180;5.812;2023-02-08T12:16:48;19.87;;;10.70;;
52848;SDS011;38714;53.180;5.812;2023-02-08T12:22:22;21.20;;;10.17;;
52848;SDS011;38714;53.180;5.812;2023-02-08T12:46:43;13.13;;;8.80;;
52848;SDS011;38714;53.180;5.812;2023-02-08T12:54:49;10.27;;;8.23;;
52848;SDS011;38714;53.180;5.812;2023-02-08T12:57:22;9.73;;;8.83;;
52848;SDS011;38714;53.180;5.812;2023-02-08T12:59:57;10.07;;;7.57;;
52848;SDS011;38714;53.180;5.812;2023-02-08T13:04:55;12.57;;;7.40;;
52848;SDS011;38714;53.180;5.812;2023-02-08T13:07:34;8.37;;;5.33;;
52848;SDS011;38714;53.180;5.812;2023-02-08T13:10:07;10.17;;;6.57;;
52848;SDS011;38714;53.180;5.812;2023-02-08T13:12:57;8.03;;;6.30;;
52848;SDS011;38714;53.180;5.812;2023-02-08T13:18:00;10.70;;;6.87;;
52848;SDS011;38714;53.180;5.812;2023-02-08T13:20:51;12.03;;;7.37;;
52848;SDS011;38714;53.180;5.812;2023-02-08T13:26:02;11.30;;;6.95;;
52848;SDS011;38714;53.180;5.812;2023-02-08T13:28:32;11.50;;;6.15;;
52848;SDS011;38714;53.180;5.812;2023-02-08T13:33:32;7.65;;;6.78;;
52848;SDS011;38714;53.180;5.812;2023-02-08T13:36:05;12.53;;;8.50;;
52848;SDS011;38714;53.180;5.812;2023-02-08T13:38:44;14.67;;;6.77;;
52848;SDS011;38714;53.180;5.812;2023-02-08T13:43:50;11.57;;;6.90;;
52848;SDS011;38714;53.180;5.812;2023-02-08T13:46:22;11.18;;;8.15;;
52848;SDS011;38714;53.180;5.812;2023-02-08T13:48:51;13.02;;;7.13;;
52848;SDS011;38714;53.180;5.812;2023-02-08T13:56:41;8.97;;;5.90;;
52848;SDS011;38714;53.180;5.812;2023-02-08T13:59:31;11.00;;;5.72;;
52848;SDS011;38714;53.180;5.812;2023-02-08T14:04:42;9.10;;;4.88;;
52848;SDS011;38714;53.180;5.812;2023-02-08T14:07:41;8.30;;;5.77;;
52848;SDS011;38714;53.180;5.812;2023-02-08T14:10:16;8.00;;;5.45;;
52848;SDS011;38714;53.180;5.812;2023-02-08T14:13:01;8.25;;;4.72;;
52848;SDS011;38714;53.180;5.812;2023-02-08T14:15:36;7.20;;;5.18;;
52848;SDS011;38714;53.180;5.812;2023-02-08T14:18:04;12.43;;;6.22;;
52848;SDS011;38714;53.180;5.812;2023-02-08T14:20:58;14.02;;;5.72;;
52848;SDS011;38714;53.180;5.812;2023-02-08T14:23:27;7.78;;;6.30;;
52848;SDS011;38714;53.180;5.812;2023-02-08T14:25:55;6.68;;;4.53;;
52848;SDS011;38714;53.180;5.812;2023-02-08T14:28:37;12.87;;;5.87;;
52848;SDS011;38714;53.180;5.812;2023-02-08T14:31:09;6.07;;;4.32;;
52848;SDS011;38714;53.180;5.812;2023-02-08T14:33:37;7.03;;;5.60;;
52848;SDS011;38714;53.180;5.812;2023-02-08T14:36:07;6.97;;;5.20;;
52848;SDS011;38714;53.180;5.812;2023-02-08T14:42:14;7.83;;;5.33;;
52848;SDS011;38714;53.180;5.812;2023-02-08T14:45:39;7.70;;;5.07;;
52848;SDS011;38714;53.180;5.812;2023-02-08T14:50:56;12.77;;;7.73;;
52848;SDS011;38714;53.180;5.812;2023-02-08T14:53:34;5.65;;;5.00;;
52848;SDS011;38714;53.180;5.812;2023-02-08T14:58:48;8.35;;;4.43;;
52848;SDS011;38714;53.180;5.812;2023-02-08T15:01:21;6.47;;;4.75;;
52848;SDS011;38714;53.180;5.812;2023-02-08T15:04:04;6.50;;;5.07;;
52848;SDS011;38714;53.180;5.812;2023-02-08T15:11:57;7.95;;;4.95;;
52848;SDS011;38714;53.180;5.812;2023-02-08T15:14:30;11.50;;;6.00;;
52848;SDS011;38714;53.180;5.812;2023-02-08T15:16:59;6.55;;;5.05;;
52848;SDS011;38714;53.180;5.812;2023-02-08T15:19:26;10.80;;;5.15;;
52848;SDS011;38714;53.180;5.812;2023-02-08T15:27:50;5.50;;;4.40;;
52848;SDS011;38714;53.180;5.812;2023-02-08T15:30:22;7.13;;;5.33;;
52848;SDS011;38714;53.180;5.812;2023-02-08T15:32:47;9.83;;;5.67;;
52848;SDS011;38714;53.180;5.812;2023-02-08T15:35:14;5.60;;;5.03;;
52848;SDS011;38714;53.180;5.812;2023-02-08T15:37:44;16.00;;;7.18;;
52848;SDS011;38714;53.180;5.812;2023-02-08T15:45:32;8.40;;;5.93;;
52848;SDS011;38714;53.180;5.812;2023-02-08T15:47:58;7.60;;;6.03;;
52848;SDS011;38714;53.180;5.812;2023-02-08T15:50:25;8.55;;;5.35;;
52848;SDS011;38714;53.180;5.812;2023-02-08T15:53:11;13.17;;;7.57;;
52848;SDS011;38714;53.180;5.812;2023-02-08T15:55:42;6.05;;;5.45;;
52848;SDS011;38714;53.180;5.812;2023-02-08T15:58:27;10.83;;;5.87;;
52848;SDS011;38714;53.180;5.812;2023-02-08T16:01:00;7.53;;;5.32;;
52848;SDS011;38714;53.180;5.812;2023-02-08T16:03:27;6.57;;;5.33;;
52848;SDS011;38714;53.180;5.812;2023-02-08T16:05:55;10.67;;;6.00;;
52848;SDS011;38714;53.180;5.812;2023-02-08T16:08:23;10.37;;;4.73;;
52848;SDS011;38714;53.180;5.812;2023-02-08T16:11:01;9.60;;;5.03;;
52848;SDS011;38714;53.180;5.812;2023-02-08T16:13:31;8.57;;;5.77;;
52848;SDS011;38714;53.180;5.812;2023-02-08T16:19:00;9.80;;;6.53;;
52848;SDS011;38714;53.180;5.812;2023-02-08T16:21:36;7.37;;;5.30;;
52848;SDS011;38714;53.180;5.812;2023-02-08T16:29:28;7.77;;;6.40;;
52848;SDS011;38714;53.180;5.812;2023-02-08T16:32:38;7.85;;;6.55;;
52848;SDS011;38714;53.180;5.812;2023-02-08T16:34:50;8.73;;;5.37;;
52848;SDS011;38714;53.180;5.812;2023-02-08T16:37:24;13.30;;;6.30;;
52848;SDS011;38714;53.180;5.812;2023-02-08T16:40:03;9.97;;;4.93;;
52848;SDS011;38714;53.180;5.812;2023-02-08T16:43:13;10.02;;;6.88;;
52848;SDS011;38714;53.180;5.812;2023-02-08T16:48:33;5.53;;;4.70;;
52848;SDS011;38714;53.180;5.812;2023-02-08T16:51:00;7.60;;;5.67;;
52848;SDS011;38714;53.180;5.812;2023-02-08T16:53:27;8.80;;;6.03;;
52848;SDS011;38714;53.180;5.812;2023-02-08T16:55:54;7.93;;;6.10;;
52848;SDS011;38714;53.180;5.812;2023-02-08T16:58:20;14.03;;;7.27;;
52848;SDS011;38714;53.180;5.812;2023-02-08T17:00:46;12.73;;;8.17;;
52848;SDS011;38714;53.180;5.812;2023-02-08T17:03:12;8.27;;;5.50;;
52848;SDS011;38714;53.180;5.812;2023-02-08T17:05:38;6.93;;;5.73;;
52848;SDS011;38714;53.180;5.812;2023-02-08T17:08:05;5.77;;;3.97;;
52848;SDS011;38714;53.180;5.812;2023-02-08T17:10:35;7.57;;;5.23;;
52848;SDS011;38714;53.180;5.812;2023-02-08T17:13:01;9.10;;;5.43;;
52848;SDS011;38714;53.180;5.812;2023-02-08T17:15:27;5.27;;;3.30;;
52848;SDS011;38714;53.180;5.812;2023-02-08T17:17:53;8.63;;;5.27;;
52848;SDS011;38714;53.180;5.812;2023-02-08T17:22:48;6.83;;;5.03;;
52848;SDS011;38714;53.180;5.812;2023-02-08T17:25:15;7.70;;;6.03;;
52848;SDS011;38714;53.180;5.812;2023-02-08T17:27:54;9.23;;;5.37;;
52848;SDS011;38714;53.180;5.812;2023-02-08T17:30:26;11.33;;;5.77;;
52848;SDS011;38714;53.180;5.812;2023-02-08T17:33:00;4.90;;;4.47;;
52848;SDS011;38714;53.180;5.812;2023-02-08T17:35:26;10.67;;;5.17;;
52848;SDS011;38714;53.180;5.812;2023-02-08T17:37:53;8.73;;;4.80;;
52848;SDS011;38714;53.180;5.812;2023-02-08T17:40:21;9.40;;;5.57;;
52848;SDS011;38714;53.180;5.812;2023-02-08T17:42:50;6.87;;;4.63;;